sensor_id;sensor_type;location;lat;lon;timestamp;pressure;altitude;pressure_sealevel;temperature;humidity
58471;BME280;44258;51.288;12.068;2023-05-23T00:00:19;100052.56;;;19.32;57.82
58471;BME280;44258;51.288;12.068;2023-05-23T00:03:06;100053.81;;;19.00;60.16
58471;BME280;44258;51.288;12.068;2023-05-23T00:05:55;100045.72;;;19.18;59.66
58471;BME280;44258;51.288;12.068;2023-05-23T00:08:46;100048.63;;;19.07;60.63
58471;BME280;44258;51.288;12.068;2023-05-23T00:11:35;100051.19;;;19.18;60.41
58471;BME280;44258;51.288;12.068;2023-05-23T00:14:23;100042.25;;;19.53;59.33
58471;BME280;44258;51.288;12.068;2023-05-23T00:17:22;100038.16;;;19.77;58.67
58471;BME280;44258;51.288;12.068;2023-05-23T00:20:11;100042.13;;;20.01;57.48
58471;BME280;44258;51.288;12.068;2023-05-23T00:22:58;100030.53;;;20.17;57.30
58471;BME280;44258;51.288;12.068;2023-05-23T00:25:45;100038.09;;;20.23;56.69
58471;BME280;44258;51.288;12.068;2023-05-23T00:28:37;100024.66;;;20.29;57.08
58471;BME280;44258;51.288;12.068;2023-05-23T00:31:24;100039.91;;;20.32;57.18
58471;BME280;44258;51.288;12.068;2023-05-23T00:34:13;100044.34;;;20.33;57.02
58471;BME280;44258;51.288;12.068;2023-05-23T00:37:05;100040.06;;;20.30;56.81
58471;BME280;44258;51.288;12.068;2023-05-23T00:39:52;100042.84;;;20.21;57.12
58471;BME280;44258;51.288;12.068;2023-05-23T00:42:39;100037.88;;;20.16;57.07
58471;BME280;44258;51.288;12.068;2023-05-23T00:45:27;100026.63;;;20.19;57.47
58471;BME280;44258;51.288;12.068;2023-05-23T00:48:15;100025.00;;;20.26;57.00
58471;BME280;44258;51.288;12.068;2023-05-23T00:51:10;100012.03;;;20.28;57.30
58471;BME280;44258;51.288;12.068;2023-05-23T00:53:57;100018.50;;;20.27;57.37
58471;BME280;44258;51.288;12.068;2023-05-23T00:56:48;100024.66;;;20.29;57.62
58471;BME280;44258;51.288;12.068;2023-05-23T00:59:42;100033.56;;;20.31;57.00
58471;BME280;44258;51.288;12.068;2023-05-23T01:02:32;100032.09;;;20.37;57.14
58471;BME280;44258;51.288;12.068;2023-05-23T01:05:22;100048.63;;;20.36;57.02
58471;BME280;44258;51.288;12.068;2023-05-23T01:08:12;100052.16;;;20.28;56.82
58471;BME280;44258;51.288;12.068;2023-05-23T01:11:05;100049.34;;;20.20;57.37
58471;BME280;44258;51.288;12.068;2023-05-23T01:14:00;100051.38;;;20.18;57.18
58471;BME280;44258;51.288;12.068;2023-05-23T01:16:54;100050.66;;;20.16;57.57
58471;BME280;44258;51.288;12.068;2023-05-23T01:23:17;100053.31;;;20.07;57.19
58471;BME280;44258;51.288;12.068;2023-05-23T01:26:30;100054.78;;;20.02;57.51
58471;BME280;44258;51.288;12.068;2023-05-23T01:29:23;100052.53;;;19.97;57.37
58471;BME280;44258;51.288;12.068;2023-05-23T01:32:15;100057.03;;;19.88;58.07
58471;BME280;44258;51.288;12.068;2023-05-23T01:35:04;100056.03;;;19.89;57.88
58471;BME280;44258;51.288;12.068;2023-05-23T01:37:52;100045.56;;;19.85;58.03
58471;BME280;44258;51.288;12.068;2023-05-23T01:40:38;100051.19;;;19.83;58.03
58471;BME280;44258;51.288;12.068;2023-05-23T01:43:26;100051.88;;;19.85;57.70
58471;BME280;44258;51.288;12.068;2023-05-23T01:46:15;100060.81;;;19.78;57.61
58471;BME280;44258;51.288;12.068;2023-05-23T01:49:03;100056.63;;;19.83;57.13
58471;BME280;44258;51.288;12.068;2023-05-23T01:51:51;100048.13;;;19.86;57.19
58471;BME280;44258;51.288;12.068;2023-05-23T01:54:38;100053.34;;;19.80;56.63
58471;BME280;44258;51.288;12.068;2023-05-23T01:57:28;100060.69;;;19.69;56.79
58471;BME280;44258;51.288;12.068;2023-05-23T02:00:16;100061.06;;;19.57;57.09
58471;BME280;44258;51.288;12.068;2023-05-23T02:03:05;100056.75;;;19.54;57.24
58471;BME280;44258;51.288;12.068;2023-05-23T02:05:55;100054.72;;;19.56;57.49
58471;BME280;44258;51.288;12.068;2023-05-23T02:08:42;100061.50;;;19.52;57.17
58471;BME280;44258;51.288;12.068;2023-05-23T02:11:28;100064.63;;;19.57;56.94
58471;BME280;44258;51.288;12.068;2023-05-23T02:14:15;100057.81;;;19.43;57.40
58471;BME280;44258;51.288;12.068;2023-05-23T02:17:05;100055.81;;;19.36;57.65
58471;BME280;44258;51.288;12.068;2023-05-23T02:19:53;100048.56;;;19.26;58.15
58471;BME280;44258;51.288;12.068;2023-05-23T02:22:41;100053.31;;;19.24;58.06
58471;BME280;44258;51.288;12.068;2023-05-23T02:25:31;100063.88;;;19.37;58.34
58471;BME280;44258;51.288;12.068;2023-05-23T02:28:20;100060.78;;;19.12;59.02
58471;BME280;44258;51.288;12.068;2023-05-23T02:31:07;100071.53;;;19.24;59.28
58471;BME280;44258;51.288;12.068;2023-05-23T02:33:56;100069.56;;;19.06;59.26
58471;BME280;44258;51.288;12.068;2023-05-23T02:36:46;100081.75;;;19.02;59.49
58471;BME280;44258;51.288;12.068;2023-05-23T02:39:35;100081.63;;;19.04;59.31
58471;BME280;44258;51.288;12.068;2023-05-23T02:42:22;100082.34;;;18.96;59.30
58471;BME280;44258;51.288;12.068;2023-05-23T02:45:09;100070.72;;;18.74;59.74
58471;BME280;44258;51.288;12.068;2023-05-23T02:47:56;100072.75;;;18.72;59.82
58471;BME280;44258;51.288;12.068;2023-05-23T02:50:50;100073.63;;;18.63;59.64
58471;BME280;44258;51.288;12.068;2023-05-23T02:53:43;100080.09;;;18.43;60.33
58471;BME280;44258;51.288;12.068;2023-05-23T02:56:30;100075.38;;;18.45;60.77
58471;BME280;44258;51.288;12.068;2023-05-23T02:59:16;100076.63;;;18.70;59.24
58471;BME280;44258;51.288;12.068;2023-05-23T03:02:04;100080.22;;;18.51;60.08
58471;BME280;44258;51.288;12.068;2023-05-23T03:04:51;100086.53;;;18.42;60.56
58471;BME280;44258;51.288;12.068;2023-05-23T03:07:40;100075.63;;;18.42;61.01
58471;BME280;44258;51.288;12.068;2023-05-23T03:10:31;100073.50;;;18.36;61.13
58471;BME280;44258;51.288;12.068;2023-05-23T03:13:18;100084.81;;;18.31;61.57
58471;BME280;44258;51.288;12.068;2023-05-23T03:16:05;100075.34;;;18.25;61.87
58471;BME280;44258;51.288;12.068;2023-05-23T03:18:52;100079.72;;;18.07;62.93
58471;BME280;44258;51.288;12.068;2023-05-23T03:21:39;100081.44;;;17.98;62.99
58471;BME280;44258;51.288;12.068;2023-05-23T03:24:26;100082.75;;;18.04;63.23
58471;BME280;44258;51.288;12.068;2023-05-23T03:27:14;100083.25;;;18.28;61.69
58471;BME280;44258;51.288;12.068;2023-05-23T03:30:01;100085.38;;;18.15;62.12
58471;BME280;44258;51.288;12.068;2023-05-23T03:32:50;100088.59;;;17.99;62.89
58471;BME280;44258;51.288;12.068;2023-05-23T03:35:38;100093.91;;;18.01;62.86
58471;BME280;44258;51.288;12.068;2023-05-23T03:38:24;100099.13;;;18.23;61.71
58471;BME280;44258;51.288;12.068;2023-05-23T03:41:11;100093.25;;;18.08;62.19
58471;BME280;44258;51.288;12.068;2023-05-23T03:44:03;100094.91;;;18.00;62.62
58471;BME280;44258;51.288;12.068;2023-05-23T03:46:51;100093.88;;;17.91;62.84
58471;BME280;44258;51.288;12.068;2023-05-23T03:49:38;100101.69;;;18.15;61.45
58471;BME280;44258;51.288;12.068;2023-05-23T03:52:24;100104.84;;;18.10;61.91
58471;BME280;44258;51.288;12.068;2023-05-23T03:55:13;100103.72;;;18.32;60.62
58471;BME280;44258;51.288;12.068;2023-05-23T03:58:00;100107.78;;;18.07;61.89
58471;BME280;44258;51.288;12.068;2023-05-23T04:00:48;100108.56;;;18.19;61.61
58471;BME280;44258;51.288;12.068;2023-05-23T04:03:37;100095.91;;;17.99;62.14
58471;BME280;44258;51.288;12.068;2023-05-23T04:06:24;100102.13;;;18.10;62.36
58471;BME280;44258;51.288;12.068;2023-05-23T04:09:11;100103.81;;;18.02;62.17
58471;BME280;44258;51.288;12.068;2023-05-23T04:11:59;100109.63;;;17.87;62.80
58471;BME280;44258;51.288;12.068;2023-05-23T04:14:45;100118.06;;;17.84;63.78
58471;BME280;44258;51.288;12.068;2023-05-23T04:17:34;100113.81;;;17.91;63.16
58471;BME280;44258;51.288;12.068;2023-05-23T04:20:23;100114.03;;;17.79;63.92
58471;BME280;44258;51.288;12.068;2023-05-23T04:23:10;100123.63;;;17.83;63.92
58471;BME280;44258;51.288;12.068;2023-05-23T04:25:57;100125.31;;;17.74;64.69
58471;BME280;44258;51.288;12.068;2023-05-23T04:28:50;100128.78;;;17.76;64.17
58471;BME280;44258;51.288;12.068;2023-05-23T04:31:38;100122.09;;;17.49;65.32
58471;BME280;44258;51.288;12.068;2023-05-23T04:34:27;100121.53;;;17.56;65.43
58471;BME280;44258;51.288;12.068;2023-05-23T04:37:22;100124.97;;;17.58;65.44
58471;BME280;44258;51.288;12.068;2023-05-23T04:40:11;100130.13;;;17.61;65.31
58471;BME280;44258;51.288;12.068;2023-05-23T04:42:59;100131.91;;;17.81;65.04
58471;BME280;44258;51.288;12.068;2023-05-23T04:45:47;100132.97;;;17.90;64.74
58471;BME280;44258;51.288;12.068;2023-05-23T04:48:35;100138.47;;;17.69;65.41
58471;BME280;44258;51.288;12.068;2023-05-23T04:51:32;100142.19;;;17.68;65.66
58471;BME280;44258;51.288;12.068;2023-05-23T04:54:19;100149.56;;;17.87;65.01
58471;BME280;44258;51.288;12.068;2023-05-23T04:57:06;100144.50;;;17.72;65.67
58471;BME280;44258;51.288;12.068;2023-05-23T04:59:54;100151.34;;;17.98;64.68
58471;BME280;44258;51.288;12.068;2023-05-23T05:02:41;100144.81;;;18.10;64.59
58471;BME280;44258;51.288;12.068;2023-05-23T05:05:28;100147.69;;;18.28;64.38
58471;BME280;44258;51.288;12.068;2023-05-23T05:08:16;100151.03;;;18.61;63.07
58471;BME280;44258;51.288;12.068;2023-05-23T05:11:05;100139.00;;;18.63;63.19
58471;BME280;44258;51.288;12.068;2023-05-23T05:13:52;100146.59;;;18.79;63.43
58471;BME280;44258;51.288;12.068;2023-05-23T05:16:38;100159.34;;;18.88;63.02
58471;BME280;44258;51.288;12.068;2023-05-23T05:19:30;100157.91;;;18.74;63.42
58471;BME280;44258;51.288;12.068;2023-05-23T05:22:21;100161.06;;;18.89;63.03
58471;BME280;44258;51.288;12.068;2023-05-23T05:25:11;100157.31;;;18.81;62.89
58471;BME280;44258;51.288;12.068;2023-05-23T05:28:02;100168.78;;;18.74;63.19
58471;BME280;44258;51.288;12.068;2023-05-23T05:30:50;100168.94;;;18.63;63.79
58471;BME280;44258;51.288;12.068;2023-05-23T05:33:39;100171.09;;;18.69;63.47
58471;BME280;44258;51.288;12.068;2023-05-23T05:36:33;100168.97;;;18.73;63.27
58471;BME280;44258;51.288;12.068;2023-05-23T05:39:23;100164.22;;;18.56;63.86
58471;BME280;44258;51.288;12.068;2023-05-23T05:42:17;100169.81;;;18.64;63.14
58471;BME280;44258;51.288;12.068;2023-05-23T05:45:05;100166.66;;;18.78;62.77
58471;BME280;44258;51.288;12.068;2023-05-23T05:47:56;100169.38;;;18.68;62.97
58471;BME280;44258;51.288;12.068;2023-05-23T05:50:42;100170.38;;;18.58;62.94
58471;BME280;44258;51.288;12.068;2023-05-23T05:53:30;100173.25;;;18.66;63.14
58471;BME280;44258;51.288;12.068;2023-05-23T05:56:16;100175.41;;;18.52;62.93
58471;BME280;44258;51.288;12.068;2023-05-23T05:59:06;100179.97;;;18.52;62.95
58471;BME280;44258;51.288;12.068;2023-05-23T06:01:53;100170.25;;;18.59;62.43
58471;BME280;44258;51.288;12.068;2023-05-23T06:04:41;100180.56;;;18.65;61.65
58471;BME280;44258;51.288;12.068;2023-05-23T06:07:31;100185.56;;;18.50;62.46
58471;BME280;44258;51.288;12.068;2023-05-23T06:10:23;100181.41;;;18.66;61.81
58471;BME280;44258;51.288;12.068;2023-05-23T06:13:10;100184.13;;;18.66;61.80
58471;BME280;44258;51.288;12.068;2023-05-23T06:15:58;100188.16;;;18.62;61.89
58471;BME280;44258;51.288;12.068;2023-05-23T06:18:48;100184.81;;;18.48;62.29
58471;BME280;44258;51.288;12.068;2023-05-23T06:21:36;100198.59;;;18.47;62.24
58471;BME280;44258;51.288;12.068;2023-05-23T06:24:23;100184.41;;;18.43;62.46
58471;BME280;44258;51.288;12.068;2023-05-23T06:27:17;100184.47;;;18.12;63.55
58471;BME280;44258;51.288;12.068;2023-05-23T06:30:05;100183.66;;;18.31;62.92
58471;BME280;44258;51.288;12.068;2023-05-23T06:32:56;100185.41;;;18.52;62.39
58471;BME280;44258;51.288;12.068;2023-05-23T06:35:43;100186.16;;;18.64;62.08
58471;BME280;44258;51.288;12.068;2023-05-23T06:38:33;100186.28;;;18.72;61.66
58471;BME280;44258;51.288;12.068;2023-05-23T06:41:21;100197.88;;;18.64;62.37
58471;BME280;44258;51.288;12.068;2023-05-23T06:44:10;100193.25;;;18.36;62.64
58471;BME280;44258;51.288;12.068;2023-05-23T06:46:57;100199.94;;;18.12;63.64
58471;BME280;44258;51.288;12.068;2023-05-23T06:49:45;100210.47;;;17.44;65.76
58471;BME280;44258;51.288;12.068;2023-05-23T06:52:32;100198.47;;;17.77;64.45
58471;BME280;44258;51.288;12.068;2023-05-23T06:55:21;100200.72;;;18.03;64.00
58471;BME280;44258;51.288;12.068;2023-05-23T06:58:11;100201.78;;;17.81;64.29
58471;BME280;44258;51.288;12.068;2023-05-23T07:00:59;100208.13;;;17.91;63.74
58471;BME280;44258;51.288;12.068;2023-05-23T07:03:45;100215.84;;;17.86;64.49
58471;BME280;44258;51.288;12.068;2023-05-23T07:06:34;100219.25;;;17.78;63.53
58471;BME280;44258;51.288;12.068;2023-05-23T07:09:24;100216.44;;;17.38;64.84
58471;BME280;44258;51.288;12.068;2023-05-23T07:12:11;100215.84;;;17.34;65.16
58471;BME280;44258;51.288;12.068;2023-05-23T07:14:58;100215.59;;;17.37;64.99
58471;BME280;44258;51.288;12.068;2023-05-23T07:17:45;100222.69;;;17.28;65.23
58471;BME280;44258;51.288;12.068;2023-05-23T07:20:32;100217.28;;;17.59;64.41
58471;BME280;44258;51.288;12.068;2023-05-23T07:23:22;100223.22;;;17.74;64.01
58471;BME280;44258;51.288;12.068;2023-05-23T07:26:09;100227.00;;;17.83;63.96
58471;BME280;44258;51.288;12.068;2023-05-23T07:28:57;100226.13;;;17.82;63.51
58471;BME280;44258;51.288;12.068;2023-05-23T07:31:50;100217.91;;;17.42;65.11
58471;BME280;44258;51.288;12.068;2023-05-23T07:34:38;100222.59;;;17.40;65.17
58471;BME280;44258;51.288;12.068;2023-05-23T07:37:27;100236.34;;;17.69;65.16
58471;BME280;44258;51.288;12.068;2023-05-23T07:40:17;100235.44;;;17.80;63.84
58471;BME280;44258;51.288;12.068;2023-05-23T07:43:03;100240.47;;;17.84;63.80
58471;BME280;44258;51.288;12.068;2023-05-23T07:45:50;100236.06;;;17.93;63.26
58471;BME280;44258;51.288;12.068;2023-05-23T07:48:37;100235.81;;;18.27;62.32
58471;BME280;44258;51.288;12.068;2023-05-23T07:51:24;100243.84;;;18.28;61.68
58471;BME280;44258;51.288;12.068;2023-05-23T07:54:11;100233.75;;;18.19;62.20
58471;BME280;44258;51.288;12.068;2023-05-23T07:56:59;100243.19;;;18.15;61.91
58471;BME280;44258;51.288;12.068;2023-05-23T07:59:46;100244.22;;;18.24;61.38
58471;BME280;44258;51.288;12.068;2023-05-23T08:02:33;100244.56;;;18.30;60.92
58471;BME280;44258;51.288;12.068;2023-05-23T08:05:23;100248.38;;;17.97;62.55
58471;BME280;44258;51.288;12.068;2023-05-23T08:08:10;100239.94;;;18.21;61.88
58471;BME280;44258;51.288;12.068;2023-05-23T08:10:57;100236.31;;;18.11;62.28
58471;BME280;44258;51.288;12.068;2023-05-23T08:13:45;100246.56;;;18.38;61.07
58471;BME280;44258;51.288;12.068;2023-05-23T08:16:33;100242.56;;;18.32;59.61
58471;BME280;44258;51.288;12.068;2023-05-23T08:19:22;100237.31;;;18.70;59.92
58471;BME280;44258;51.288;12.068;2023-05-23T08:22:12;100247.38;;;18.69;58.79
58471;BME280;44258;51.288;12.068;2023-05-23T08:24:58;100244.22;;;18.84;57.14
58471;BME280;44258;51.288;12.068;2023-05-23T08:27:47;100243.22;;;18.85;55.05
58471;BME280;44258;51.288;12.068;2023-05-23T08:30:35;100252.28;;;18.95;54.46
58471;BME280;44258;51.288;12.068;2023-05-23T08:33:22;100244.00;;;19.16;53.07
58471;BME280;44258;51.288;12.068;2023-05-23T08:36:10;100244.69;;;18.99;52.96
58471;BME280;44258;51.288;12.068;2023-05-23T08:38:57;100241.13;;;18.98;53.62
58471;BME280;44258;51.288;12.068;2023-05-23T08:41:45;100241.94;;;18.69;53.18
58471;BME280;44258;51.288;12.068;2023-05-23T08:44:32;100238.34;;;18.69;53.83
58471;BME280;44258;51.288;12.068;2023-05-23T08:47:20;100248.19;;;18.60;53.39
58471;BME280;44258;51.288;12.068;2023-05-23T08:50:10;100244.72;;;18.48;53.20
58471;BME280;44258;51.288;12.068;2023-05-23T08:52:58;100249.06;;;18.51;53.44
58471;BME280;44258;51.288;12.068;2023-05-23T08:55:45;100244.19;;;18.64;53.31
58471;BME280;44258;51.288;12.068;2023-05-23T08:58:33;100248.38;;;18.78;53.02
58471;BME280;44258;51.288;12.068;2023-05-23T09:01:24;100253.44;;;18.92;52.95
58471;BME280;44258;51.288;12.068;2023-05-23T09:04:13;100251.38;;;18.85;52.89
58471;BME280;44258;51.288;12.068;2023-05-23T09:07:01;100256.25;;;18.71;53.18
58471;BME280;44258;51.288;12.068;2023-05-23T09:09:48;100259.16;;;18.89;52.74
58471;BME280;44258;51.288;12.068;2023-05-23T09:12:36;100263.06;;;19.06;52.71
58471;BME280;44258;51.288;12.068;2023-05-23T09:15:25;100267.31;;;18.80;53.34
58471;BME280;44258;51.288;12.068;2023-05-23T09:18:13;100275.63;;;18.88;52.20
58471;BME280;44258;51.288;12.068;2023-05-23T09:21:02;100273.38;;;19.03;52.59
58471;BME280;44258;51.288;12.068;2023-05-23T09:23:49;100269.38;;;19.07;51.82
58471;BME280;44258;51.288;12.068;2023-05-23T09:26:36;100270.22;;;19.27;51.87
58471;BME280;44258;51.288;12.068;2023-05-23T09:29:24;100269.25;;;19.18;52.07
58471;BME280;44258;51.288;12.068;2023-05-23T09:32:20;100273.50;;;18.91;52.42
58471;BME280;44258;51.288;12.068;2023-05-23T09:35:08;100282.97;;;18.97;52.55
58471;BME280;44258;51.288;12.068;2023-05-23T09:37:58;100274.09;;;18.95;53.15
58471;BME280;44258;51.288;12.068;2023-05-23T09:40:45;100276.06;;;18.83;53.49
58471;BME280;44258;51.288;12.068;2023-05-23T09:43:32;100282.56;;;19.21;52.68
58471;BME280;44258;51.288;12.068;2023-05-23T09:46:19;100280.44;;;19.34;52.03
58471;BME280;44258;51.288;12.068;2023-05-23T09:49:16;100288.88;;;19.02;52.79
58471;BME280;44258;51.288;12.068;2023-05-23T09:52:03;100293.75;;;18.99;52.71
58471;BME280;44258;51.288;12.068;2023-05-23T09:54:55;100297.06;;;19.02;52.89
58471;BME280;44258;51.288;12.068;2023-05-23T09:57:42;100282.72;;;19.10;52.22
58471;BME280;44258;51.288;12.068;2023-05-23T10:00:32;100291.88;;;18.99;53.39
58471;BME280;44258;51.288;12.068;2023-05-23T10:03:26;100289.63;;;19.24;52.04
58471;BME280;44258;51.288;12.068;2023-05-23T10:06:17;100294.78;;;19.37;52.38
58471;BME280;44258;51.288;12.068;2023-05-23T10:09:12;100296.06;;;19.42;51.36
58471;BME280;44258;51.288;12.068;2023-05-23T10:15:35;100288.56;;;19.54;51.02
58471;BME280;44258;51.288;12.068;2023-05-23T10:18:25;100292.19;;;19.35;52.29
58471;BME280;44258;51.288;12.068;2023-05-23T10:21:18;100290.47;;;19.34;51.54
58471;BME280;44258;51.288;12.068;2023-05-23T10:24:11;100294.59;;;19.67;51.47
58471;BME280;44258;51.288;12.068;2023-05-23T10:26:59;100295.59;;;19.76;50.90
58471;BME280;44258;51.288;12.068;2023-05-23T10:29:46;100296.44;;;19.86;51.47
58471;BME280;44258;51.288;12.068;2023-05-23T10:32:37;100293.06;;;20.12;50.73
58471;BME280;44258;51.288;12.068;2023-05-23T10:35:35;100303.31;;;19.90;50.88
58471;BME280;44258;51.288;12.068;2023-05-23T10:38:28;100303.31;;;20.00;50.91
58471;BME280;44258;51.288;12.068;2023-05-23T10:41:22;100308.31;;;20.05;50.93
58471;BME280;44258;51.288;12.068;2023-05-23T10:44:19;100304.72;;;20.04;50.79
58471;BME280;44258;51.288;12.068;2023-05-23T10:47:09;100306.72;;;20.12;51.11
58471;BME280;44258;51.288;12.068;2023-05-23T10:50:02;100310.09;;;19.77;51.40
58471;BME280;44258;51.288;12.068;2023-05-23T10:52:52;100314.72;;;19.18;51.91
58471;BME280;44258;51.288;12.068;2023-05-23T10:55:47;100311.00;;;18.59;52.84
58471;BME280;44258;51.288;12.068;2023-05-23T10:58:37;100317.38;;;18.48;53.89
58471;BME280;44258;51.288;12.068;2023-05-23T11:01:25;100323.13;;;18.45;54.78
58471;BME280;44258;51.288;12.068;2023-05-23T11:04:12;100320.50;;;18.33;55.38
58471;BME280;44258;51.288;12.068;2023-05-23T11:07:01;100321.09;;;18.37;55.21
58471;BME280;44258;51.288;12.068;2023-05-23T11:10:07;100330.03;;;18.18;56.75
58471;BME280;44258;51.288;12.068;2023-05-23T11:13:05;100339.38;;;17.83;57.55
58471;BME280;44258;51.288;12.068;2023-05-23T11:15:52;100344.44;;;17.88;57.23
58471;BME280;44258;51.288;12.068;2023-05-23T11:18:39;100341.50;;;17.80;57.88
58471;BME280;44258;51.288;12.068;2023-05-23T11:21:28;100340.97;;;17.86;57.27
58471;BME280;44258;51.288;12.068;2023-05-23T11:24:17;100338.72;;;17.91;57.65
58471;BME280;44258;51.288;12.068;2023-05-23T11:27:10;100346.03;;;17.69;58.08
58471;BME280;44258;51.288;12.068;2023-05-23T11:29:59;100341.59;;;17.89;57.16
58471;BME280;44258;51.288;12.068;2023-05-23T11:32:49;100345.22;;;17.79;57.20
58471;BME280;44258;51.288;12.068;2023-05-23T11:35:37;100347.66;;;17.61;58.01
58471;BME280;44258;51.288;12.068;2023-05-23T11:38:24;100347.31;;;17.54;57.93
58471;BME280;44258;51.288;12.068;2023-05-23T11:41:12;100356.63;;;17.51;57.93
58471;BME280;44258;51.288;12.068;2023-05-23T11:43:59;100367.84;;;17.03;59.93
58471;BME280;44258;51.288;12.068;2023-05-23T11:46:58;100368.63;;;16.15;65.62
58471;BME280;44258;51.288;12.068;2023-05-23T11:49:46;100370.97;;;16.08;66.86
58471;BME280;44258;51.288;12.068;2023-05-23T11:52:33;100373.94;;;16.28;67.19
58471;BME280;44258;51.288;12.068;2023-05-23T11:55:21;100373.91;;;15.94;69.12
58471;BME280;44258;51.288;12.068;2023-05-23T11:58:09;100382.88;;;15.59;69.61
58471;BME280;44258;51.288;12.068;2023-05-23T12:00:59;100375.97;;;15.55;69.88
58471;BME280;44258;51.288;12.068;2023-05-23T12:03:48;100369.28;;;15.83;68.83
58471;BME280;44258;51.288;12.068;2023-05-23T12:06:37;100378.47;;;15.69;69.18
58471;BME280;44258;51.288;12.068;2023-05-23T12:09:25;100381.97;;;15.83;69.26
58471;BME280;44258;51.288;12.068;2023-05-23T12:12:12;100383.38;;;15.88;68.53
58471;BME280;44258;51.288;12.068;2023-05-23T12:15:00;100384.63;;;16.07;68.06
58471;BME280;44258;51.288;12.068;2023-05-23T12:17:47;100386.38;;;16.19;67.00
58471;BME280;44258;51.288;12.068;2023-05-23T12:20:35;100382.28;;;15.56;69.26
58471;BME280;44258;51.288;12.068;2023-05-23T12:23:23;100383.56;;;15.74;69.24
58471;BME280;44258;51.288;12.068;2023-05-23T12:26:11;100390.00;;;16.31;67.71
58471;BME280;44258;51.288;12.068;2023-05-23T12:28:58;100394.00;;;16.14;68.73
58471;BME280;44258;51.288;12.068;2023-05-23T12:31:50;100397.72;;;16.13;67.87
58471;BME280;44258;51.288;12.068;2023-05-23T12:34:40;100392.78;;;16.18;67.54
58471;BME280;44258;51.288;12.068;2023-05-23T12:37:27;100404.00;;;16.13;67.32
58471;BME280;44258;51.288;12.068;2023-05-23T12:40:16;100408.31;;;16.16;66.94
58471;BME280;44258;51.288;12.068;2023-05-23T12:43:07;100409.22;;;15.57;67.30
58471;BME280;44258;51.288;12.068;2023-05-23T12:46:00;100406.09;;;15.26;67.96
58471;BME280;44258;51.288;12.068;2023-05-23T12:48:48;100413.63;;;15.47;67.74
58471;BME280;44258;51.288;12.068;2023-05-23T12:51:38;100415.59;;;15.45;66.29
58471;BME280;44258;51.288;12.068;2023-05-23T12:54:25;100411.63;;;15.62;66.65
58471;BME280;44258;51.288;12.068;2023-05-23T12:57:12;100406.91;;;14.79;67.69
58471;BME280;44258;51.288;12.068;2023-05-23T12:59:59;100411.03;;;15.08;67.31
58471;BME280;44258;51.288;12.068;2023-05-23T13:02:46;100412.03;;;15.07;66.92
58471;BME280;44258;51.288;12.068;2023-05-23T13:05:37;100416.69;;;15.05;66.76
58471;BME280;44258;51.288;12.068;2023-05-23T13:08:25;100418.56;;;15.29;66.19
58471;BME280;44258;51.288;12.068;2023-05-23T13:11:12;100423.00;;;15.30;65.48
58471;BME280;44258;51.288;12.068;2023-05-23T13:13:59;100418.47;;;15.54;64.94
58471;BME280;44258;51.288;12.068;2023-05-23T13:16:49;100414.94;;;15.04;65.66
58471;BME280;44258;51.288;12.068;2023-05-23T13:19:36;100423.06;;;15.17;66.29
58471;BME280;44258;51.288;12.068;2023-05-23T13:22:25;100416.13;;;15.50;64.80
58471;BME280;44258;51.288;12.068;2023-05-23T13:25:12;100426.56;;;15.43;64.61
58471;BME280;44258;51.288;12.068;2023-05-23T13:28:01;100426.63;;;15.18;64.37
58471;BME280;44258;51.288;12.068;2023-05-23T13:30:51;100425.31;;;15.10;64.61
58471;BME280;44258;51.288;12.068;2023-05-23T13:33:38;100425.88;;;15.15;65.35
58471;BME280;44258;51.288;12.068;2023-05-23T13:36:27;100425.84;;;15.52;63.45
58471;BME280;44258;51.288;12.068;2023-05-23T13:39:20;100422.75;;;15.09;63.39
58471;BME280;44258;51.288;12.068;2023-05-23T13:42:08;100427.25;;;15.21;63.58
58471;BME280;44258;51.288;12.068;2023-05-23T13:44:58;100443.44;;;15.71;62.92
58471;BME280;44258;51.288;12.068;2023-05-23T13:47:54;100439.41;;;15.52;62.58
58471;BME280;44258;51.288;12.068;2023-05-23T13:50:41;100445.06;;;15.49;63.14
58471;BME280;44258;51.288;12.068;2023-05-23T13:53:29;100457.63;;;15.74;61.76
58471;BME280;44258;51.288;12.068;2023-05-23T13:56:18;100457.84;;;15.71;61.66
58471;BME280;44258;51.288;12.068;2023-05-23T13:59:05;100463.53;;;16.04;60.92
58471;BME280;44258;51.288;12.068;2023-05-23T14:01:52;100473.56;;;16.14;60.25
58471;BME280;44258;51.288;12.068;2023-05-23T14:04:41;100484.16;;;15.58;62.12
58471;BME280;44258;51.288;12.068;2023-05-23T14:07:28;100487.91;;;15.31;62.03
58471;BME280;44258;51.288;12.068;2023-05-23T14:10:15;100487.38;;;15.63;60.74
58471;BME280;44258;51.288;12.068;2023-05-23T14:13:04;100484.31;;;15.44;61.62
58471;BME280;44258;51.288;12.068;2023-05-23T14:15:52;100499.88;;;15.03;62.06
58471;BME280;44258;51.288;12.068;2023-05-23T14:18:38;100501.75;;;14.39;64.23
58471;BME280;44258;51.288;12.068;2023-05-23T14:21:25;100501.97;;;14.61;63.34
58471;BME280;44258;51.288;12.068;2023-05-23T14:24:12;100511.19;;;14.59;63.73
58471;BME280;44258;51.288;12.068;2023-05-23T14:27:00;100503.28;;;14.68;63.40
58471;BME280;44258;51.288;12.068;2023-05-23T14:29:49;100507.94;;;14.66;63.64
58471;BME280;44258;51.288;12.068;2023-05-23T14:32:36;100506.44;;;14.62;63.50
58471;BME280;44258;51.288;12.068;2023-05-23T14:35:24;100505.00;;;14.44;64.43
58471;BME280;44258;51.288;12.068;2023-05-23T14:38:14;100515.59;;;14.47;63.90